createdAt,value
2023-04-18T00:02:34.740Z,15.79
2023-04-18T00:07:40.103Z,16.01
2023-04-18T00:12:44.817Z,16.25
2023-04-18T00:17:49.988Z,16.48
2023-04-18T00:22:56.193Z,16.76
2023-04-18T00:28:01.288Z,17.06
2023-04-18T00:33:06.684Z,17.35
2023-04-18T00:38:11.831Z,17.63
2023-04-18T00:43:18.807Z,17.91
2023-04-18T00:48:25.729Z,18.15
2023-04-18T00:53:32.237Z,18.39
2023-04-18T00:58:37.446Z,18.64
2023-04-18T01:03:42.212Z,18.91
2023-04-18T01:08:47.509Z,19.16
2023-04-18T01:14:08.421Z,19.41
2023-04-18T01:19:14.208Z,19.66
2023-04-18T01:24:19.941Z,19.91
2023-04-18T01:29:26.270Z,20.15
2023-04-18T01:34:33.020Z,20.36
2023-04-18T01:39:38.100Z,20.55
2023-04-18T01:44:43.104Z,20.80
2023-04-18T01:49:51.371Z,21.01
2023-04-18T01:54:56.472Z,21.24
2023-04-18T02:00:02.586Z,21.46
2023-04-18T02:05:07.464Z,21.66
2023-04-18T02:10:16.688Z,21.85
2023-04-18T02:15:24.037Z,22.07
2023-04-18T02:20:33.005Z,22.30
2023-04-18T02:25:40.508Z,22.48
2023-04-18T02:30:47.373Z,22.67
2023-04-18T02:35:52.240Z,22.80
2023-04-18T02:40:58.072Z,23.05
2023-04-18T02:46:04.715Z,23.31
2023-04-18T02:51:11.231Z,23.55
2023-04-18T02:56:20.112Z,23.77
2023-04-18T03:02:03.136Z,23.99
2023-04-18T03:07:11.078Z,24.22
2023-04-18T03:12:17.371Z,24.36
2023-04-18T03:17:22.897Z,24.53
2023-04-18T03:22:28.822Z,24.75
2023-04-18T03:27:36.289Z,24.95
2023-04-18T03:32:43.273Z,25.12
2023-04-18T03:37:48.638Z,25.19
2023-04-18T03:43:01.580Z,25.36
2023-04-18T03:48:08.446Z,25.54
2023-04-18T03:53:18.991Z,25.70
2023-04-18T03:58:25.808Z,25.84
2023-04-18T04:03:32.067Z,26.01
2023-04-18T04:08:39.062Z,26.14
2023-04-18T04:13:44.010Z,26.26
2023-04-18T04:18:52.032Z,26.49
2023-04-18T04:24:02.563Z,26.68
2023-04-18T04:29:13.074Z,26.85
2023-04-18T04:34:20.644Z,27.08
2023-04-18T04:39:25.853Z,27.30
2023-04-18T04:44:50.333Z,27.51
2023-04-18T04:49:55.897Z,27.55
2023-04-18T04:55:01.022Z,27.59
2023-04-18T05:00:09.509Z,27.73
2023-04-18T05:05:14.914Z,27.84
2023-04-18T05:10:20.431Z,27.98
2023-04-18T05:15:26.449Z,28.05
2023-04-18T05:20:31.522Z,28.16
2023-04-18T05:25:37.697Z,28.32
2023-04-18T05:30:42.251Z,28.43
2023-04-18T05:35:46.585Z,28.53
2023-04-18T05:40:52.463Z,28.60
2023-04-18T05:45:58.017Z,28.67
2023-04-18T05:51:04.399Z,28.75
2023-04-18T05:56:09.482Z,28.85
2023-04-18T06:01:16.236Z,28.97
2023-04-18T06:06:21.471Z,28.99
2023-04-18T06:11:26.451Z,29.03
2023-04-18T06:16:31.754Z,29.08
2023-04-18T06:21:37.422Z,29.16
2023-04-18T06:26:42.664Z,29.30
2023-04-18T06:31:48.002Z,29.43
2023-04-18T06:36:53.448Z,29.58
2023-04-18T06:42:00.286Z,29.68
2023-04-18T06:47:06.422Z,29.73
2023-04-18T06:52:11.756Z,29.86
2023-04-18T06:57:16.926Z,29.97
2023-04-18T07:02:21.934Z,30.04
2023-04-18T07:07:27.789Z,30.06
2023-04-18T07:12:32.133Z,30.05
2023-04-18T07:17:38.434Z,30.18
2023-04-18T07:22:44.052Z,30.27
2023-04-18T07:27:49.165Z,30.28
2023-04-18T07:32:54.219Z,30.18
2023-04-18T07:37:58.561Z,30.25
2023-04-18T07:43:03.711Z,30.19
2023-04-18T07:48:08.999Z,30.10
2023-04-18T07:53:14.208Z,30.10
2023-04-18T07:58:19.540Z,30.27
2023-04-18T08:03:24.821Z,30.31
2023-04-18T08:08:29.916Z,30.30
2023-04-18T08:13:35.651Z,30.44
2023-04-18T08:18:40.737Z,30.74
2023-04-18T08:23:45.661Z,30.87
2023-04-18T08:28:50.493Z,30.86
2023-04-18T08:33:55.601Z,30.97
2023-04-18T08:39:00.583Z,30.83
2023-04-18T08:44:06.783Z,30.44
2023-04-18T08:49:12.282Z,30.06
2023-04-18T08:54:17.067Z,29.77
2023-04-18T08:59:22.102Z,29.52
2023-04-18T09:04:37.464Z,29.20
2023-04-18T09:09:43.439Z,28.97
2023-04-18T09:14:52.223Z,28.77
2023-04-18T09:19:58.123Z,28.64
2023-04-18T09:25:03.109Z,28.44
2023-04-18T09:30:09.974Z,28.23
2023-04-18T09:35:27.321Z,27.98
2023-04-18T09:40:33.659Z,27.75
2023-04-18T09:45:39.322Z,27.56
2023-04-18T09:50:46.438Z,27.33
2023-04-18T09:55:57.807Z,27.18
2023-04-18T10:01:04.913Z,26.98
2023-04-18T10:06:11.230Z,26.69
2023-04-18T10:11:18.585Z,26.49
2023-04-18T10:16:24.648Z,26.27
2023-04-18T10:21:32.391Z,26.19
2023-04-18T10:26:51.549Z,26.02
2023-04-18T10:31:56.969Z,25.79
2023-04-18T10:37:08.524Z,25.61
2023-04-18T10:42:13.730Z,25.46
2023-04-18T10:47:22.554Z,25.32
2023-04-18T10:52:28.650Z,25.16
2023-04-18T10:57:44.852Z,25.01
2023-04-18T11:03:01.392Z,24.81
2023-04-18T11:08:07.388Z,24.60
2023-04-18T11:13:14.085Z,24.39
2023-04-18T11:18:19.135Z,24.24
2023-04-18T11:23:26.375Z,24.06
2023-04-18T11:28:31.914Z,23.93
2023-04-18T11:33:40.474Z,23.74
2023-04-18T11:38:45.711Z,23.54
2023-04-18T11:43:51.607Z,23.34
2023-04-18T11:48:57.221Z,23.27
2023-04-18T11:54:03.356Z,23.08
2023-04-18T11:59:12.027Z,22.94
2023-04-18T12:04:18.184Z,22.80
2023-04-18T12:09:28.051Z,22.66
2023-04-18T12:14:35.545Z,22.57
2023-04-18T12:19:48.008Z,22.44
2023-04-18T12:25:32.062Z,22.34
2023-04-18T12:30:38.781Z,22.20
2023-04-18T12:35:45.821Z,22.08
2023-04-18T12:40:55.146Z,21.93
2023-04-18T12:46:01.783Z,21.86
2023-04-18T12:51:09.591Z,21.77
2023-04-18T12:56:20.433Z,21.66
2023-04-18T13:01:25.590Z,21.54
2023-04-18T13:06:31.910Z,21.44
2023-04-18T13:11:38.934Z,21.37
2023-04-18T13:16:46.273Z,21.28
2023-04-18T13:21:52.645Z,21.21
2023-04-18T13:26:58.737Z,21.09
2023-04-18T13:32:04.622Z,21.02
2023-04-18T13:37:11.284Z,20.95
2023-04-18T13:42:17.310Z,20.87
2023-04-18T13:47:23.687Z,20.75
2023-04-18T13:52:31.144Z,20.60
2023-04-18T13:57:42.369Z,20.51
2023-04-18T14:02:48.961Z,20.38
2023-04-18T14:08:03.806Z,20.28
2023-04-18T14:13:10.837Z,20.21
2023-04-18T14:18:17.990Z,20.11
2023-04-18T14:23:25.376Z,20.01
2023-04-18T14:28:32.506Z,19.92
2023-04-18T14:33:39.426Z,19.82
2023-04-18T14:38:55.168Z,19.72
2023-04-18T14:44:02.298Z,19.63
2023-04-18T14:49:09.114Z,19.53
2023-04-18T14:54:14.860Z,19.42
2023-04-18T14:59:21.122Z,19.32
2023-04-18T15:04:27.431Z,19.31
2023-04-18T15:09:39.988Z,19.18
2023-04-18T15:14:45.966Z,19.05
2023-04-18T15:19:51.536Z,18.95
2023-04-18T15:24:58.303Z,18.78
2023-04-18T15:30:06.867Z,18.64
2023-04-18T15:35:14.401Z,18.46
2023-04-18T15:40:21.613Z,18.35
2023-04-18T15:45:28.428Z,18.17
2023-04-18T15:50:35.491Z,18.05
2023-04-18T15:55:41.964Z,17.94
2023-04-18T16:00:48.124Z,17.82
2023-04-18T16:05:54.176Z,17.71
2023-04-18T16:11:00.103Z,17.63
2023-04-18T16:16:07.566Z,17.62
2023-04-18T16:21:17.346Z,17.55
2023-04-18T16:26:22.938Z,17.53
2023-04-18T16:31:28.422Z,17.45
2023-04-18T16:36:39.151Z,17.37
2023-04-18T16:41:45.920Z,17.34
2023-04-18T16:46:51.531Z,17.27
2023-04-18T16:51:58.154Z,17.23
2023-04-18T16:57:04.218Z,17.18
2023-04-18T17:02:11.120Z,17.12
2023-04-18T17:07:18.271Z,17.09
2023-04-18T17:12:23.673Z,17.06
2023-04-18T17:17:29.270Z,17.00
2023-04-18T17:22:36.289Z,16.98
2023-04-18T17:27:42.631Z,16.90
2023-04-18T17:32:48.285Z,16.94
2023-04-18T17:37:54.172Z,16.91
2023-04-18T17:42:59.543Z,16.82
2023-04-18T17:48:05.048Z,16.73
2023-04-18T17:53:10.594Z,16.62
2023-04-18T17:58:18.147Z,16.51
2023-04-18T18:03:23.955Z,16.39
2023-04-18T18:08:30.223Z,16.32
2023-04-18T18:13:36.729Z,16.24
2023-04-18T18:18:43.149Z,16.16
2023-04-18T18:23:48.859Z,16.12
2023-04-18T18:28:55.105Z,16.04
2023-04-18T18:34:01.671Z,15.89
2023-04-18T18:39:07.105Z,15.83
2023-04-18T18:44:13.015Z,15.79
2023-04-18T18:49:19.705Z,15.69
2023-04-18T18:54:24.850Z,15.63
2023-04-18T18:59:31.332Z,15.50
2023-04-18T19:04:36.945Z,15.43
2023-04-18T19:09:41.862Z,15.38
2023-04-18T19:14:48.199Z,15.27
2023-04-18T19:20:01.428Z,15.23
2023-04-18T19:25:07.504Z,15.22
2023-04-18T19:30:13.668Z,15.21
2023-04-18T19:35:20.364Z,15.09
2023-04-18T19:40:28.095Z,15.08
2023-04-18T19:45:34.193Z,15.07
2023-04-18T19:50:43.619Z,15.01
2023-04-18T19:55:49.872Z,14.92
2023-04-18T20:00:55.613Z,14.84
2023-04-18T20:06:01.230Z,14.80
2023-04-18T20:11:10.153Z,14.79
2023-04-18T20:16:19.210Z,14.75
2023-04-18T20:21:24.811Z,14.71
2023-04-18T20:26:30.358Z,14.62
2023-04-18T20:31:37.512Z,14.55
2023-04-18T20:36:43.366Z,14.46
2023-04-18T20:41:52.692Z,14.45
2023-04-18T20:46:58.406Z,14.39
2023-04-18T20:52:03.274Z,14.39
2023-04-18T20:57:08.710Z,14.38
2023-04-18T21:02:14.296Z,14.35
2023-04-18T21:07:20.910Z,14.32
2023-04-18T21:12:26.283Z,14.21
2023-04-18T21:17:32.384Z,14.09
2023-04-18T21:22:37.682Z,13.98
2023-04-18T21:27:43.329Z,13.93
2023-04-18T21:32:51.396Z,13.87
2023-04-18T21:37:57.037Z,13.84
2023-04-18T21:43:02.632Z,13.83
2023-04-18T21:48:10.727Z,13.83
2023-04-18T21:53:18.507Z,13.80
2023-04-18T21:58:24.069Z,13.77
2023-04-18T22:03:31.105Z,13.80
2023-04-18T22:08:37.246Z,13.83
2023-04-18T22:13:45.955Z,13.89
2023-04-18T22:18:50.845Z,13.93
2023-04-18T22:23:56.284Z,14.00
2023-04-18T22:29:01.982Z,14.02
2023-04-18T22:34:07.621Z,14.10
2023-04-18T22:39:13.444Z,14.18
2023-04-18T22:44:19.576Z,14.27
2023-04-18T22:49:25.322Z,14.34
2023-04-18T22:54:30.775Z,14.47
2023-04-18T22:59:36.613Z,14.60
2023-04-18T23:04:43.725Z,14.71
2023-04-18T23:09:49.408Z,14.82
2023-04-18T23:14:55.171Z,14.94
2023-04-18T23:20:00.693Z,15.08
2023-04-18T23:25:06.956Z,15.18
2023-04-18T23:30:12.994Z,15.35
2023-04-18T23:35:19.766Z,15.47
2023-04-18T23:40:25.386Z,15.63
2023-04-18T23:45:30.750Z,15.78
2023-04-18T23:50:39.281Z,15.93
2023-04-18T23:55:45.018Z,16.11
